sensor_id;sensor_type;location;lat;lon;timestamp;temperature;humidity
5592;DHT22;2818;49.790;9.958;2022-07-23T00:00:17;25.20;1.00
5592;DHT22;2818;49.790;9.958;2022-07-23T00:02:44;25.20;1.00
5592;DHT22;2818;49.790;9.958;2022-07-23T00:05:12;25.10;1.00
5592;DHT22;2818;49.790;9.958;2022-07-23T00:07:38;25.10;1.00
5592;DHT22;2818;49.790;9.958;2022-07-23T00:10:06;25.00;1.00
5592;DHT22;2818;49.790;9.958;2022-07-23T00:12:33;25.00;1.00
5592;DHT22;2818;49.790;9.958;2022-07-23T00:15:00;24.90;1.00
5592;DHT22;2818;49.790;9.958;2022-07-23T00:17:27;24.90;1.00
5592;DHT22;2818;49.790;9.958;2022-07-23T00:19:54;24.90;1.00
5592;DHT22;2818;49.790;9.958;2022-07-23T00:22:21;24.90;1.00
5592;DHT22;2818;49.790;9.958;2022-07-23T00:24:48;24.90;1.00
5592;DHT22;2818;49.790;9.958;2022-07-23T00:27:34;24.80;1.00
5592;DHT22;2818;49.790;9.958;2022-07-23T00:30:02;24.80;1.00
5592;DHT22;2818;49.790;9.958;2022-07-23T00:32:29;24.70;1.00
5592;DHT22;2818;49.790;9.958;2022-07-23T00:35:20;24.70;1.00
5592;DHT22;2818;49.790;9.958;2022-07-23T00:37:48;24.70;1.00
5592;DHT22;2818;49.790;9.958;2022-07-23T00:40:15;24.70;1.00
5592;DHT22;2818;49.790;9.958;2022-07-23T00:42:42;24.60;1.40
5592;DHT22;2818;49.790;9.958;2022-07-23T00:45:09;24.60;7.90
5592;DHT22;2818;49.790;9.958;2022-07-23T00:47:36;24.60;11.10
5592;DHT22;2818;49.790;9.958;2022-07-23T00:50:05;24.60;14.30
5592;DHT22;2818;49.790;9.958;2022-07-23T00:52:33;24.50;3.10
5592;DHT22;2818;49.790;9.958;2022-07-23T00:55:01;24.50;1.00
5592;DHT22;2818;49.790;9.958;2022-07-23T00:57:28;24.50;1.00
5592;DHT22;2818;49.790;9.958;2022-07-23T00:59:55;24.50;1.00
5592;DHT22;2818;49.790;9.958;2022-07-23T01:02:22;24.40;1.00
5592;DHT22;2818;49.790;9.958;2022-07-23T01:04:49;24.40;1.00
5592;DHT22;2818;49.790;9.958;2022-07-23T01:07:17;24.40;1.90
5592;DHT22;2818;49.790;9.958;2022-07-23T01:09:45;24.40;6.70
5592;DHT22;2818;49.790;9.958;2022-07-23T01:12:12;24.30;10.20
5592;DHT22;2818;49.790;9.958;2022-07-23T01:14:39;24.30;10.30
5592;DHT22;2818;49.790;9.958;2022-07-23T01:17:06;24.30;17.10
5592;DHT22;2818;49.790;9.958;2022-07-23T01:19:33;24.30;14.70
5592;DHT22;2818;49.790;9.958;2022-07-23T01:22:02;24.30;16.30
5592;DHT22;2818;49.790;9.958;2022-07-23T01:24:30;24.20;23.80
5592;DHT22;2818;49.790;9.958;2022-07-23T01:26:57;24.20;25.00
5592;DHT22;2818;49.790;9.958;2022-07-23T01:29:24;24.20;29.60
5592;DHT22;2818;49.790;9.958;2022-07-23T01:31:51;24.10;43.30
5592;DHT22;2818;49.790;9.958;2022-07-23T01:34:18;24.10;77.30
5592;DHT22;2818;49.790;9.958;2022-07-23T01:36:45;24.10;65.30
5592;DHT22;2818;49.790;9.958;2022-07-23T01:39:12;24.10;87.60
5592;DHT22;2818;49.790;9.958;2022-07-23T01:41:39;24.10;80.40
5592;DHT22;2818;49.790;9.958;2022-07-23T01:44:09;24.00;90.50
5592;DHT22;2818;49.790;9.958;2022-07-23T01:46:38;24.00;99.90
5592;DHT22;2818;49.790;9.958;2022-07-23T01:49:05;23.90;99.90
5592;DHT22;2818;49.790;9.958;2022-07-23T01:51:32;23.80;99.90
5592;DHT22;2818;49.790;9.958;2022-07-23T01:53:59;23.70;99.90
5592;DHT22;2818;49.790;9.958;2022-07-23T01:56:26;23.60;99.90
5592;DHT22;2818;49.790;9.958;2022-07-23T01:58:53;23.50;99.90
5592;DHT22;2818;49.790;9.958;2022-07-23T02:01:20;23.50;99.90
5592;DHT22;2818;49.790;9.958;2022-07-23T02:03:47;23.50;99.90
5592;DHT22;2818;49.790;9.958;2022-07-23T02:06:14;23.50;99.90
5592;DHT22;2818;49.790;9.958;2022-07-23T02:08:41;23.60;99.90
5592;DHT22;2818;49.790;9.958;2022-07-23T02:11:08;23.60;99.90
5592;DHT22;2818;49.790;9.958;2022-07-23T02:13:35;23.60;99.90
5592;DHT22;2818;49.790;9.958;2022-07-23T02:16:02;23.50;99.90
5592;DHT22;2818;49.790;9.958;2022-07-23T02:18:29;23.50;99.90
5592;DHT22;2818;49.790;9.958;2022-07-23T02:20:56;23.50;99.90
5592;DHT22;2818;49.790;9.958;2022-07-23T02:23:23;23.40;99.90
5592;DHT22;2818;49.790;9.958;2022-07-23T02:25:50;23.50;99.90
5592;DHT22;2818;49.790;9.958;2022-07-23T02:28:16;23.50;99.90
5592;DHT22;2818;49.790;9.958;2022-07-23T02:30:43;23.50;99.90
5592;DHT22;2818;49.790;9.958;2022-07-23T02:33:10;23.40;99.90
5592;DHT22;2818;49.790;9.958;2022-07-23T02:35:37;23.40;99.90
5592;DHT22;2818;49.790;9.958;2022-07-23T02:38:04;23.40;99.90
5592;DHT22;2818;49.790;9.958;2022-07-23T02:40:31;23.40;99.90
5592;DHT22;2818;49.790;9.958;2022-07-23T02:42:58;23.40;99.90
5592;DHT22;2818;49.790;9.958;2022-07-23T02:45:25;23.30;99.90
5592;DHT22;2818;49.790;9.958;2022-07-23T02:47:52;23.30;99.90
5592;DHT22;2818;49.790;9.958;2022-07-23T02:50:19;23.30;99.90
5592;DHT22;2818;49.790;9.958;2022-07-23T02:52:46;23.20;99.90
5592;DHT22;2818;49.790;9.958;2022-07-23T02:55:13;23.20;99.90
5592;DHT22;2818;49.790;9.958;2022-07-23T02:57:40;23.20;99.90
5592;DHT22;2818;49.790;9.958;2022-07-23T03:00:08;23.10;99.90
5592;DHT22;2818;49.790;9.958;2022-07-23T03:02:35;23.10;99.90
5592;DHT22;2818;49.790;9.958;2022-07-23T03:05:03;23.00;99.90
5592;DHT22;2818;49.790;9.958;2022-07-23T03:07:30;22.90;99.90
5592;DHT22;2818;49.790;9.958;2022-07-23T03:09:57;22.90;99.90
5592;DHT22;2818;49.790;9.958;2022-07-23T03:12:24;22.90;99.90
5592;DHT22;2818;49.790;9.958;2022-07-23T03:14:50;22.90;99.90
5592;DHT22;2818;49.790;9.958;2022-07-23T03:17:17;22.80;1.00
5592;DHT22;2818;49.790;9.958;2022-07-23T03:19:44;22.80;1.00
5592;DHT22;2818;49.790;9.958;2022-07-23T03:22:11;22.70;1.00
5592;DHT22;2818;49.790;9.958;2022-07-23T03:24:38;22.60;1.00
5592;DHT22;2818;49.790;9.958;2022-07-23T03:27:34;22.50;1.00
5592;DHT22;2818;49.790;9.958;2022-07-23T03:30:01;22.50;1.00
5592;DHT22;2818;49.790;9.958;2022-07-23T03:32:28;22.40;1.00
5592;DHT22;2818;49.790;9.958;2022-07-23T03:34:55;22.40;1.00
5592;DHT22;2818;49.790;9.958;2022-07-23T03:37:23;22.40;1.00
5592;DHT22;2818;49.790;9.958;2022-07-23T03:39:50;22.30;1.00
5592;DHT22;2818;49.790;9.958;2022-07-23T03:42:17;22.30;1.00
5592;DHT22;2818;49.790;9.958;2022-07-23T03:44:44;22.20;1.00
5592;DHT22;2818;49.790;9.958;2022-07-23T03:47:11;22.20;1.00
5592;DHT22;2818;49.790;9.958;2022-07-23T03:49:38;22.20;1.00
5592;DHT22;2818;49.790;9.958;2022-07-23T03:52:05;22.10;1.00
5592;DHT22;2818;49.790;9.958;2022-07-23T03:54:32;22.20;1.00
5592;DHT22;2818;49.790;9.958;2022-07-23T03:56:59;22.20;1.00
5592;DHT22;2818;49.790;9.958;2022-07-23T03:59:26;22.20;1.00
5592;DHT22;2818;49.790;9.958;2022-07-23T04:01:53;22.20;1.00
5592;DHT22;2818;49.790;9.958;2022-07-23T04:04:20;22.20;1.00
5592;DHT22;2818;49.790;9.958;2022-07-23T04:06:47;22.20;1.00
5592;DHT22;2818;49.790;9.958;2022-07-23T04:09:14;22.20;1.00
5592;DHT22;2818;49.790;9.958;2022-07-23T04:11:41;22.20;1.00
5592;DHT22;2818;49.790;9.958;2022-07-23T04:14:08;22.20;1.00
5592;DHT22;2818;49.790;9.958;2022-07-23T04:16:35;22.20;1.00
5592;DHT22;2818;49.790;9.958;2022-07-23T04:19:02;22.20;1.00
5592;DHT22;2818;49.790;9.958;2022-07-23T04:21:31;22.20;1.00
5592;DHT22;2818;49.790;9.958;2022-07-23T04:23:58;22.20;1.00
5592;DHT22;2818;49.790;9.958;2022-07-23T04:26:25;22.20;1.00
5592;DHT22;2818;49.790;9.958;2022-07-23T04:28:52;22.30;1.00
5592;DHT22;2818;49.790;9.958;2022-07-23T04:31:19;22.30;1.00
5592;DHT22;2818;49.790;9.958;2022-07-23T04:33:46;22.30;54.20
5592;DHT22;2818;49.790;9.958;2022-07-23T04:36:13;22.30;8.30
5592;DHT22;2818;49.790;9.958;2022-07-23T04:38:40;22.30;99.20
5592;DHT22;2818;49.790;9.958;2022-07-23T04:41:07;22.20;99.90
5592;DHT22;2818;49.790;9.958;2022-07-23T04:43:33;22.20;99.90
5592;DHT22;2818;49.790;9.958;2022-07-23T04:46:00;22.20;99.90
5592;DHT22;2818;49.790;9.958;2022-07-23T04:48:27;22.20;99.90
5592;DHT22;2818;49.790;9.958;2022-07-23T04:50:54;22.20;99.90
5592;DHT22;2818;49.790;9.958;2022-07-23T04:53:21;22.20;99.90
5592;DHT22;2818;49.790;9.958;2022-07-23T04:55:48;22.30;99.90
5592;DHT22;2818;49.790;9.958;2022-07-23T04:58:15;22.30;99.90
5592;DHT22;2818;49.790;9.958;2022-07-23T05:00:42;22.40;96.70
5592;DHT22;2818;49.790;9.958;2022-07-23T05:03:09;22.50;99.90
5592;DHT22;2818;49.790;9.958;2022-07-23T05:05:36;22.50;99.90
5592;DHT22;2818;49.790;9.958;2022-07-23T05:08:04;22.50;88.40
5592;DHT22;2818;49.790;9.958;2022-07-23T05:10:31;22.50;99.90
5592;DHT22;2818;49.790;9.958;2022-07-23T05:12:58;22.50;99.90
5592;DHT22;2818;49.790;9.958;2022-07-23T05:15:25;22.40;99.90
5592;DHT22;2818;49.790;9.958;2022-07-23T05:17:52;22.40;99.90
5592;DHT22;2818;49.790;9.958;2022-07-23T05:20:19;22.40;99.90
5592;DHT22;2818;49.790;9.958;2022-07-23T05:22:46;22.40;38.30
5592;DHT22;2818;49.790;9.958;2022-07-23T05:25:13;22.30;22.80
5592;DHT22;2818;49.790;9.958;2022-07-23T05:27:40;22.30;20.30
5592;DHT22;2818;49.790;9.958;2022-07-23T05:30:07;22.30;45.50
5592;DHT22;2818;49.790;9.958;2022-07-23T05:32:34;22.40;7.00
5592;DHT22;2818;49.790;9.958;2022-07-23T05:35:05;22.40;22.30
5592;DHT22;2818;49.790;9.958;2022-07-23T05:37:32;22.40;64.50
5592;DHT22;2818;49.790;9.958;2022-07-23T05:40:03;22.30;94.10
5592;DHT22;2818;49.790;9.958;2022-07-23T05:42:33;22.20;99.90
5592;DHT22;2818;49.790;9.958;2022-07-23T05:45:00;22.20;99.90
5592;DHT22;2818;49.790;9.958;2022-07-23T05:47:29;22.10;99.90
5592;DHT22;2818;49.790;9.958;2022-07-23T05:49:56;22.20;99.90
5592;DHT22;2818;49.790;9.958;2022-07-23T05:52:29;22.20;99.90
5592;DHT22;2818;49.790;9.958;2022-07-23T05:54:56;22.30;1.00
5592;DHT22;2818;49.790;9.958;2022-07-23T05:57:23;22.30;1.00
5592;DHT22;2818;49.790;9.958;2022-07-23T05:59:51;22.30;1.00
5592;DHT22;2818;49.790;9.958;2022-07-23T06:02:18;22.30;1.00
5592;DHT22;2818;49.790;9.958;2022-07-23T06:04:44;22.20;99.90
5592;DHT22;2818;49.790;9.958;2022-07-23T06:07:12;22.10;1.00
5592;DHT22;2818;49.790;9.958;2022-07-23T06:09:39;22.10;1.00
5592;DHT22;2818;49.790;9.958;2022-07-23T06:12:06;22.10;99.90
5592;DHT22;2818;49.790;9.958;2022-07-23T06:14:34;22.20;1.00
5592;DHT22;2818;49.790;9.958;2022-07-23T06:17:01;22.20;1.00
5592;DHT22;2818;49.790;9.958;2022-07-23T06:19:28;22.30;1.00
5592;DHT22;2818;49.790;9.958;2022-07-23T06:21:54;22.20;99.90
5592;DHT22;2818;49.790;9.958;2022-07-23T06:24:21;22.10;1.00
5592;DHT22;2818;49.790;9.958;2022-07-23T06:26:48;22.10;1.00
5592;DHT22;2818;49.790;9.958;2022-07-23T06:29:15;22.20;1.00
5592;DHT22;2818;49.790;9.958;2022-07-23T06:31:42;22.20;1.00
5592;DHT22;2818;49.790;9.958;2022-07-23T06:34:09;22.20;1.00
5592;DHT22;2818;49.790;9.958;2022-07-23T06:36:36;22.30;1.00
5592;DHT22;2818;49.790;9.958;2022-07-23T06:39:04;22.20;1.00
5592;DHT22;2818;49.790;9.958;2022-07-23T06:41:31;22.30;1.00
5592;DHT22;2818;49.790;9.958;2022-07-23T06:43:58;22.20;1.00
5592;DHT22;2818;49.790;9.958;2022-07-23T06:46:25;22.20;1.00
5592;DHT22;2818;49.790;9.958;2022-07-23T06:48:52;22.20;1.00
5592;DHT22;2818;49.790;9.958;2022-07-23T06:51:19;22.20;1.00
5592;DHT22;2818;49.790;9.958;2022-07-23T06:53:46;22.20;93.10
5592;DHT22;2818;49.790;9.958;2022-07-23T06:56:13;22.20;1.00
5592;DHT22;2818;49.790;9.958;2022-07-23T06:58:40;22.20;1.00
5592;DHT22;2818;49.790;9.958;2022-07-23T07:01:07;22.20;14.00
5592;DHT22;2818;49.790;9.958;2022-07-23T07:03:34;22.10;1.00
5592;DHT22;2818;49.790;9.958;2022-07-23T07:06:01;22.00;1.00
5592;DHT22;2818;49.790;9.958;2022-07-23T07:08:29;22.00;99.90
5592;DHT22;2818;49.790;9.958;2022-07-23T07:10:56;21.90;1.00
5592;DHT22;2818;49.790;9.958;2022-07-23T07:13:22;21.80;1.00
5592;DHT22;2818;49.790;9.958;2022-07-23T07:15:49;21.80;1.00
5592;DHT22;2818;49.790;9.958;2022-07-23T07:18:16;21.80;1.00
5592;DHT22;2818;49.790;9.958;2022-07-23T07:20:43;21.70;99.90
5592;DHT22;2818;49.790;9.958;2022-07-23T07:23:10;21.70;99.90
5592;DHT22;2818;49.790;9.958;2022-07-23T07:25:42;21.70;1.00
5592;DHT22;2818;49.790;9.958;2022-07-23T07:28:09;21.60;1.00
5592;DHT22;2818;49.790;9.958;2022-07-23T07:30:35;21.70;1.00
5592;DHT22;2818;49.790;9.958;2022-07-23T07:33:02;21.70;1.00
5592;DHT22;2818;49.790;9.958;2022-07-23T07:35:30;21.80;1.00
5592;DHT22;2818;49.790;9.958;2022-07-23T07:38:02;21.90;99.90
5592;DHT22;2818;49.790;9.958;2022-07-23T07:40:28;21.90;99.90
5592;DHT22;2818;49.790;9.958;2022-07-23T07:43:00;22.00;99.90
5592;DHT22;2818;49.790;9.958;2022-07-23T07:45:28;22.10;99.90
5592;DHT22;2818;49.790;9.958;2022-07-23T07:47:56;22.20;1.00
5592;DHT22;2818;49.790;9.958;2022-07-23T07:50:23;22.30;99.90
5592;DHT22;2818;49.790;9.958;2022-07-23T07:52:50;22.40;99.90
5592;DHT22;2818;49.790;9.958;2022-07-23T07:55:17;22.40;99.90
5592;DHT22;2818;49.790;9.958;2022-07-23T07:57:44;22.40;99.90
5592;DHT22;2818;49.790;9.958;2022-07-23T08:00:15;22.50;99.90
5592;DHT22;2818;49.790;9.958;2022-07-23T08:02:48;22.40;99.90
5592;DHT22;2818;49.790;9.958;2022-07-23T08:05:21;22.40;1.00
5592;DHT22;2818;49.790;9.958;2022-07-23T08:07:54;22.50;1.00
5592;DHT22;2818;49.790;9.958;2022-07-23T08:10:23;22.80;1.00
5592;DHT22;2818;49.790;9.958;2022-07-23T08:12:52;23.00;1.00
5592;DHT22;2818;49.790;9.958;2022-07-23T08:15:23;23.30;1.00
5592;DHT22;2818;49.790;9.958;2022-07-23T08:17:50;23.40;99.90
5592;DHT22;2818;49.790;9.958;2022-07-23T08:20:19;23.40;1.00
5592;DHT22;2818;49.790;9.958;2022-07-23T08:25:14;23.70;1.00
5592;DHT22;2818;49.790;9.958;2022-07-23T08:27:41;23.80;1.00
5592;DHT22;2818;49.790;9.958;2022-07-23T08:30:09;23.90;1.00
5592;DHT22;2818;49.790;9.958;2022-07-23T08:35:31;23.90;63.30
5592;DHT22;2818;49.790;9.958;2022-07-23T08:38:01;23.80;9.50
5592;DHT22;2818;49.790;9.958;2022-07-23T08:40:30;23.80;99.90
5592;DHT22;2818;49.790;9.958;2022-07-23T08:42:58;23.90;99.90
5592;DHT22;2818;49.790;9.958;2022-07-23T08:45:26;24.10;99.90
5592;DHT22;2818;49.790;9.958;2022-07-23T08:47:58;24.30;1.00
5592;DHT22;2818;49.790;9.958;2022-07-23T08:50:32;24.40;1.00
5592;DHT22;2818;49.790;9.958;2022-07-23T08:53:05;24.50;1.00
5592;DHT22;2818;49.790;9.958;2022-07-23T08:55:33;24.30;1.00
5592;DHT22;2818;49.790;9.958;2022-07-23T08:58:01;24.10;1.00
5592;DHT22;2818;49.790;9.958;2022-07-23T09:00:29;24.00;1.00
5592;DHT22;2818;49.790;9.958;2022-07-23T09:02:56;23.90;1.00
5592;DHT22;2818;49.790;9.958;2022-07-23T09:05:23;23.90;1.00
5592;DHT22;2818;49.790;9.958;2022-07-23T09:13:32;23.90;1.00
5592;DHT22;2818;49.790;9.958;2022-07-23T09:16:10;23.90;1.00
5592;DHT22;2818;49.790;9.958;2022-07-23T09:23:49;23.80;1.00
5592;DHT22;2818;49.790;9.958;2022-07-23T09:31:23;24.10;99.90
5592;DHT22;2818;49.790;9.958;2022-07-23T09:33:51;24.30;99.90
5592;DHT22;2818;49.790;9.958;2022-07-23T09:36:28;24.40;99.90
5592;DHT22;2818;49.790;9.958;2022-07-23T09:38:56;24.50;60.70
5592;DHT22;2818;49.790;9.958;2022-07-23T09:41:24;24.60;1.00
5592;DHT22;2818;49.790;9.958;2022-07-23T09:43:55;24.70;1.00
5592;DHT22;2818;49.790;9.958;2022-07-23T09:46:27;24.80;1.00
5592;DHT22;2818;49.790;9.958;2022-07-23T09:48:55;25.10;1.00
5592;DHT22;2818;49.790;9.958;2022-07-23T09:51:25;25.20;1.00
5592;DHT22;2818;49.790;9.958;2022-07-23T09:53:52;25.20;1.00
5592;DHT22;2818;49.790;9.958;2022-07-23T09:56:20;25.30;1.00
5592;DHT22;2818;49.790;9.958;2022-07-23T09:58:53;25.50;1.00
5592;DHT22;2818;49.790;9.958;2022-07-23T10:01:31;25.90;99.90
5592;DHT22;2818;49.790;9.958;2022-07-23T10:04:00;26.20;99.90
5592;DHT22;2818;49.790;9.958;2022-07-23T10:06:29;26.40;99.90
5592;DHT22;2818;49.790;9.958;2022-07-23T10:08:59;26.60;99.90
5592;DHT22;2818;49.790;9.958;2022-07-23T10:11:29;27.00;99.90
5592;DHT22;2818;49.790;9.958;2022-07-23T10:13:57;27.50;99.90
5592;DHT22;2818;49.790;9.958;2022-07-23T10:16:27;27.80;99.90
5592;DHT22;2818;49.790;9.958;2022-07-23T10:18:54;28.20;99.90
5592;DHT22;2818;49.790;9.958;2022-07-23T10:21:27;28.50;99.90
5592;DHT22;2818;49.790;9.958;2022-07-23T10:32:34;29.00;54.00
5592;DHT22;2818;49.790;9.958;2022-07-23T10:35:26;29.50;29.50
5592;DHT22;2818;49.790;9.958;2022-07-23T10:38:19;29.70;1.00
5592;DHT22;2818;49.790;9.958;2022-07-23T10:40:57;29.60;4.40
5592;DHT22;2818;49.790;9.958;2022-07-23T10:43:26;29.90;1.00
5592;DHT22;2818;49.790;9.958;2022-07-23T10:45:53;30.10;1.00
5592;DHT22;2818;49.790;9.958;2022-07-23T10:48:25;30.50;1.00
5592;DHT22;2818;49.790;9.958;2022-07-23T10:51:15;31.00;1.00
5592;DHT22;2818;49.790;9.958;2022-07-23T10:59:22;31.40;1.00
5592;DHT22;2818;49.790;9.958;2022-07-23T11:01:50;31.20;1.00
5592;DHT22;2818;49.790;9.958;2022-07-23T11:04:17;31.40;1.00
5592;DHT22;2818;49.790;9.958;2022-07-23T11:09:30;31.90;1.00
5592;DHT22;2818;49.790;9.958;2022-07-23T11:15:09;32.50;1.00
5592;DHT22;2818;49.790;9.958;2022-07-23T11:27:50;33.90;1.00
5592;DHT22;2818;49.790;9.958;2022-07-23T11:30:44;34.20;1.00
5592;DHT22;2818;49.790;9.958;2022-07-23T11:35:44;34.30;1.00
5592;DHT22;2818;49.790;9.958;2022-07-23T11:40:40;34.40;1.00
5592;DHT22;2818;49.790;9.958;2022-07-23T11:43:09;34.40;1.00
5592;DHT22;2818;49.790;9.958;2022-07-23T11:45:45;34.60;1.00
5592;DHT22;2818;49.790;9.958;2022-07-23T11:48:32;34.80;1.00
5592;DHT22;2818;49.790;9.958;2022-07-23T11:51:06;34.70;1.00
5592;DHT22;2818;49.790;9.958;2022-07-23T11:53:34;34.90;1.00
5592;DHT22;2818;49.790;9.958;2022-07-23T11:56:10;35.30;1.00
5592;DHT22;2818;49.790;9.958;2022-07-23T11:58:38;35.70;1.00
5592;DHT22;2818;49.790;9.958;2022-07-23T12:01:05;35.70;1.00
5592;DHT22;2818;49.790;9.958;2022-07-23T12:03:51;36.20;1.00
5592;DHT22;2818;49.790;9.958;2022-07-23T12:06:19;36.90;1.00
5592;DHT22;2818;49.790;9.958;2022-07-23T12:08:46;37.20;1.00
5592;DHT22;2818;49.790;9.958;2022-07-23T12:11:13;37.90;1.00
5592;DHT22;2818;49.790;9.958;2022-07-23T12:13:40;38.10;1.00
5592;DHT22;2818;49.790;9.958;2022-07-23T12:16:08;38.20;1.00
5592;DHT22;2818;49.790;9.958;2022-07-23T12:18:35;37.90;1.00
5592;DHT22;2818;49.790;9.958;2022-07-23T12:21:04;37.70;1.00
5592;DHT22;2818;49.790;9.958;2022-07-23T12:23:33;38.60;1.00
5592;DHT22;2818;49.790;9.958;2022-07-23T12:26:02;39.80;1.00
5592;DHT22;2818;49.790;9.958;2022-07-23T12:28:30;40.60;1.00
5592;DHT22;2818;49.790;9.958;2022-07-23T12:30:59;40.40;1.00
5592;DHT22;2818;49.790;9.958;2022-07-23T12:36:03;38.70;1.00
5592;DHT22;2818;49.790;9.958;2022-07-23T12:38:45;38.60;1.00
5592;DHT22;2818;49.790;9.958;2022-07-23T12:41:14;39.50;1.00
5592;DHT22;2818;49.790;9.958;2022-07-23T12:43:43;39.70;1.00
5592;DHT22;2818;49.790;9.958;2022-07-23T12:51:28;41.20;1.00
5592;DHT22;2818;49.790;9.958;2022-07-23T12:54:08;41.00;1.00
5592;DHT22;2818;49.790;9.958;2022-07-23T12:56:39;41.30;1.00
5592;DHT22;2818;49.790;9.958;2022-07-23T12:59:15;41.00;1.00
5592;DHT22;2818;49.790;9.958;2022-07-23T13:01:53;42.40;1.00
5592;DHT22;2818;49.790;9.958;2022-07-23T13:04:24;43.50;1.00
5592;DHT22;2818;49.790;9.958;2022-07-23T13:06:59;44.60;1.00
5592;DHT22;2818;49.790;9.958;2022-07-23T13:09:32;45.20;1.00
5592;DHT22;2818;49.790;9.958;2022-07-23T13:12:08;45.70;1.00
5592;DHT22;2818;49.790;9.958;2022-07-23T13:14:37;46.50;1.00
5592;DHT22;2818;49.790;9.958;2022-07-23T13:17:05;46.90;1.00
5592;DHT22;2818;49.790;9.958;2022-07-23T13:19:33;47.40;1.00
5592;DHT22;2818;49.790;9.958;2022-07-23T13:22:01;47.70;1.00
5592;DHT22;2818;49.790;9.958;2022-07-23T13:24:35;46.20;1.00
5592;DHT22;2818;49.790;9.958;2022-07-23T13:27:05;44.80;1.00
5592;DHT22;2818;49.790;9.958;2022-07-23T13:29:38;45.00;1.00
5592;DHT22;2818;49.790;9.958;2022-07-23T13:32:05;44.40;1.00
5592;DHT22;2818;49.790;9.958;2022-07-23T13:34:39;42.60;1.00
5592;DHT22;2818;49.790;9.958;2022-07-23T13:37:07;41.90;1.00
5592;DHT22;2818;49.790;9.958;2022-07-23T13:39:34;41.00;1.00
5592;DHT22;2818;49.790;9.958;2022-07-23T13:42:04;40.00;1.00
5592;DHT22;2818;49.790;9.958;2022-07-23T13:44:34;40.70;1.00
5592;DHT22;2818;49.790;9.958;2022-07-23T13:47:02;41.40;1.00
5592;DHT22;2818;49.790;9.958;2022-07-23T13:49:30;41.70;1.00
5592;DHT22;2818;49.790;9.958;2022-07-23T13:51:57;41.20;1.00
5592;DHT22;2818;49.790;9.958;2022-07-23T13:54:24;41.10;1.00
5592;DHT22;2818;49.790;9.958;2022-07-23T13:56:54;39.20;1.00
5592;DHT22;2818;49.790;9.958;2022-07-23T13:59:22;37.80;1.00
5592;DHT22;2818;49.790;9.958;2022-07-23T14:01:52;36.80;1.00
5592;DHT22;2818;49.790;9.958;2022-07-23T14:04:40;36.00;1.00
5592;DHT22;2818;49.790;9.958;2022-07-23T14:07:08;35.80;1.00
5592;DHT22;2818;49.790;9.958;2022-07-23T14:09:35;35.80;1.00
5592;DHT22;2818;49.790;9.958;2022-07-23T14:12:03;35.70;1.00
5592;DHT22;2818;49.790;9.958;2022-07-23T14:14:30;35.60;1.00
5592;DHT22;2818;49.790;9.958;2022-07-23T14:16:57;35.40;1.00
5592;DHT22;2818;49.790;9.958;2022-07-23T14:19:27;34.90;1.00
5592;DHT22;2818;49.790;9.958;2022-07-23T14:21:56;34.60;1.00
5592;DHT22;2818;49.790;9.958;2022-07-23T14:24:23;34.60;1.00
5592;DHT22;2818;49.790;9.958;2022-07-23T14:26:54;34.70;1.00
5592;DHT22;2818;49.790;9.958;2022-07-23T14:29:22;34.70;1.00
5592;DHT22;2818;49.790;9.958;2022-07-23T14:31:49;34.90;1.00
5592;DHT22;2818;49.790;9.958;2022-07-23T14:34:17;35.00;1.00
5592;DHT22;2818;49.790;9.958;2022-07-23T14:36:53;35.10;1.00
5592;DHT22;2818;49.790;9.958;2022-07-23T14:39:20;35.00;1.00
5592;DHT22;2818;49.790;9.958;2022-07-23T14:41:47;35.00;1.00
5592;DHT22;2818;49.790;9.958;2022-07-23T14:44:15;35.00;1.00
5592;DHT22;2818;49.790;9.958;2022-07-23T14:46:42;34.90;1.00
5592;DHT22;2818;49.790;9.958;2022-07-23T14:49:11;35.00;1.00
5592;DHT22;2818;49.790;9.958;2022-07-23T14:51:38;34.90;1.00
5592;DHT22;2818;49.790;9.958;2022-07-23T14:54:05;34.70;1.00
5592;DHT22;2818;49.790;9.958;2022-07-23T14:56:32;34.30;1.00
5592;DHT22;2818;49.790;9.958;2022-07-23T14:59:01;34.10;1.00
5592;DHT22;2818;49.790;9.958;2022-07-23T15:01:31;34.00;1.00
5592;DHT22;2818;49.790;9.958;2022-07-23T15:03:58;33.90;1.00
5592;DHT22;2818;49.790;9.958;2022-07-23T15:06:45;33.90;1.00
5592;DHT22;2818;49.790;9.958;2022-07-23T15:09:12;33.80;1.00
5592;DHT22;2818;49.790;9.958;2022-07-23T15:11:39;33.90;1.00
5592;DHT22;2818;49.790;9.958;2022-07-23T15:14:07;33.90;1.00
5592;DHT22;2818;49.790;9.958;2022-07-23T15:16:34;33.80;1.00
5592;DHT22;2818;49.790;9.958;2022-07-23T15:19:03;33.70;1.00
5592;DHT22;2818;49.790;9.958;2022-07-23T15:21:33;33.40;1.00
5592;DHT22;2818;49.790;9.958;2022-07-23T15:24:00;33.10;1.00
5592;DHT22;2818;49.790;9.958;2022-07-23T15:26:28;32.70;1.00
5592;DHT22;2818;49.790;9.958;2022-07-23T15:28:56;32.60;1.00
5592;DHT22;2818;49.790;9.958;2022-07-23T15:31:23;32.50;1.00
5592;DHT22;2818;49.790;9.958;2022-07-23T15:33:54;32.60;1.00
5592;DHT22;2818;49.790;9.958;2022-07-23T15:36:22;32.70;1.00
5592;DHT22;2818;49.790;9.958;2022-07-23T15:38:49;32.80;1.00
5592;DHT22;2818;49.790;9.958;2022-07-23T15:41:17;32.90;1.00
5592;DHT22;2818;49.790;9.958;2022-07-23T15:43:45;32.90;1.00
5592;DHT22;2818;49.790;9.958;2022-07-23T15:46:13;32.70;1.00
5592;DHT22;2818;49.790;9.958;2022-07-23T15:48:41;32.70;1.00
5592;DHT22;2818;49.790;9.958;2022-07-23T15:51:09;32.90;1.00
5592;DHT22;2818;49.790;9.958;2022-07-23T15:53:36;33.00;1.00
5592;DHT22;2818;49.790;9.958;2022-07-23T15:56:05;33.10;1.00
5592;DHT22;2818;49.790;9.958;2022-07-23T15:58:36;33.10;1.00
5592;DHT22;2818;49.790;9.958;2022-07-23T16:01:03;33.20;1.00
5592;DHT22;2818;49.790;9.958;2022-07-23T16:03:35;33.30;1.00
5592;DHT22;2818;49.790;9.958;2022-07-23T16:06:04;33.30;1.00
5592;DHT22;2818;49.790;9.958;2022-07-23T16:08:42;33.30;1.00
5592;DHT22;2818;49.790;9.958;2022-07-23T16:11:09;33.30;1.00
5592;DHT22;2818;49.790;9.958;2022-07-23T16:13:39;33.30;1.00
5592;DHT22;2818;49.790;9.958;2022-07-23T16:16:07;33.10;1.00
5592;DHT22;2818;49.790;9.958;2022-07-23T16:18:35;33.00;1.00
5592;DHT22;2818;49.790;9.958;2022-07-23T16:21:02;32.80;1.00
5592;DHT22;2818;49.790;9.958;2022-07-23T16:23:37;32.70;1.00
5592;DHT22;2818;49.790;9.958;2022-07-23T16:26:04;32.50;1.00
5592;DHT22;2818;49.790;9.958;2022-07-23T16:28:31;32.30;1.00
5592;DHT22;2818;49.790;9.958;2022-07-23T16:30:58;32.20;1.00
5592;DHT22;2818;49.790;9.958;2022-07-23T16:33:26;32.10;1.00
5592;DHT22;2818;49.790;9.958;2022-07-23T16:35:53;32.00;1.00
5592;DHT22;2818;49.790;9.958;2022-07-23T16:38:19;32.00;1.00
5592;DHT22;2818;49.790;9.958;2022-07-23T16:40:49;31.90;1.00
5592;DHT22;2818;49.790;9.958;2022-07-23T16:43:16;31.80;1.00
5592;DHT22;2818;49.790;9.958;2022-07-23T16:45:45;31.80;1.00
5592;DHT22;2818;49.790;9.958;2022-07-23T16:48:12;31.80;1.00
5592;DHT22;2818;49.790;9.958;2022-07-23T16:50:39;31.80;1.00
5592;DHT22;2818;49.790;9.958;2022-07-23T16:53:06;31.80;1.00
5592;DHT22;2818;49.790;9.958;2022-07-23T16:55:33;31.70;1.00
5592;DHT22;2818;49.790;9.958;2022-07-23T16:58:00;31.60;1.00
5592;DHT22;2818;49.790;9.958;2022-07-23T17:00:27;31.50;1.00
5592;DHT22;2818;49.790;9.958;2022-07-23T17:02:54;31.30;1.00
5592;DHT22;2818;49.790;9.958;2022-07-23T17:05:21;31.30;1.00
5592;DHT22;2818;49.790;9.958;2022-07-23T17:07:49;31.10;1.00
5592;DHT22;2818;49.790;9.958;2022-07-23T17:10:16;31.10;1.00
5592;DHT22;2818;49.790;9.958;2022-07-23T17:12:43;31.00;1.00
5592;DHT22;2818;49.790;9.958;2022-07-23T17:15:10;30.90;1.00
5592;DHT22;2818;49.790;9.958;2022-07-23T17:17:37;30.90;1.00
5592;DHT22;2818;49.790;9.958;2022-07-23T17:20:06;30.80;1.00
5592;DHT22;2818;49.790;9.958;2022-07-23T17:22:33;30.70;1.00
5592;DHT22;2818;49.790;9.958;2022-07-23T17:25:01;30.70;1.00